createdAt,value
2022-11-17T00:01:43.087Z,1.60
2022-11-17T00:04:45.346Z,1.55
2022-11-17T00:07:47.310Z,1.42
2022-11-17T00:10:49.266Z,1.73
2022-11-17T00:13:51.080Z,1.70
2022-11-17T00:16:53.021Z,1.85
2022-11-17T00:19:54.885Z,1.42
2022-11-17T00:22:57.095Z,1.55
2022-11-17T00:25:59.076Z,1.20
2022-11-17T00:29:03.313Z,1.60
2022-11-17T00:32:05.592Z,1.60
2022-11-17T00:35:07.585Z,1.50
2022-11-17T00:38:09.470Z,1.25
2022-11-17T00:41:13.525Z,1.48
2022-11-17T00:44:16.174Z,1.40
2022-11-17T00:47:18.200Z,1.58
2022-11-17T00:50:20.073Z,1.48
2022-11-17T00:53:21.986Z,1.65
2022-11-17T00:56:24.194Z,1.50
2022-11-17T00:59:26.099Z,1.38
2022-11-17T01:02:27.967Z,1.63
2022-11-17T01:05:33.052Z,1.67
2022-11-17T01:08:35.266Z,1.10
2022-11-17T01:11:37.545Z,1.25
2022-11-17T01:14:39.373Z,1.35
2022-11-17T01:17:41.299Z,1.20
2022-11-17T01:20:43.157Z,1.00
2022-11-17T01:23:46.125Z,1.00
2022-11-17T01:26:47.998Z,0.98
2022-11-17T01:29:49.852Z,1.13
2022-11-17T01:32:51.694Z,1.30
2022-11-17T01:35:53.931Z,1.33
2022-11-17T01:38:56.110Z,1.30
2022-11-17T01:42:02.164Z,1.15
2022-11-17T01:45:25.862Z,1.48
2022-11-17T01:48:28.368Z,1.38
2022-11-17T01:51:32.686Z,1.15
2022-11-17T01:54:39.056Z,1.73
2022-11-17T01:58:03.120Z,1.48
2022-11-17T02:01:05.302Z,0.90
2022-11-17T02:04:09.676Z,1.35
2022-11-17T02:07:24.765Z,1.40
2022-11-17T02:10:30.058Z,1.20
2022-11-17T02:13:33.814Z,1.20
2022-11-17T02:16:35.987Z,1.67
2022-11-17T02:19:40.661Z,1.40
2022-11-17T02:22:48.571Z,1.20
2022-11-17T02:26:20.853Z,1.30
2022-11-17T02:29:33.914Z,1.10
2022-11-17T02:33:09.199Z,1.10
2022-11-17T02:36:31.018Z,1.30
2022-11-17T02:40:15.882Z,1.33
2022-11-17T02:43:21.934Z,1.30
2022-11-17T02:46:25.576Z,1.40
2022-11-17T02:49:38.084Z,1.25
2022-11-17T02:52:39.952Z,1.50
2022-11-17T02:55:47.974Z,1.17
2022-11-17T02:58:53.177Z,1.67
2022-11-17T03:01:57.795Z,1.48
2022-11-17T03:05:10.683Z,1.75
2022-11-17T03:08:18.678Z,1.83
2022-11-17T03:11:28.621Z,1.48
2022-11-17T03:14:45.477Z,2.00
2022-11-17T03:17:58.372Z,1.60
2022-11-17T03:21:10.763Z,1.60
2022-11-17T03:24:44.618Z,1.38
2022-11-17T03:27:49.098Z,2.30
2022-11-17T03:30:52.845Z,1.70
2022-11-17T03:33:55.965Z,1.58
2022-11-17T03:37:02.376Z,1.80
2022-11-17T03:40:17.206Z,1.73
2022-11-17T03:43:20.886Z,1.92
2022-11-17T03:46:25.691Z,1.67
2022-11-17T03:49:33.336Z,1.90
2022-11-17T03:52:36.638Z,1.80
2022-11-17T03:55:53.190Z,2.25
2022-11-17T03:59:00.726Z,1.60
2022-11-17T04:02:02.709Z,1.42
2022-11-17T04:05:08.120Z,1.75
2022-11-17T04:08:09.985Z,1.70
2022-11-17T04:11:11.954Z,1.90
2022-11-17T04:14:13.775Z,1.55
2022-11-17T04:17:15.669Z,1.80
2022-11-17T04:20:19.208Z,1.55
2022-11-17T04:23:21.752Z,1.30
2022-11-17T04:29:25.787Z,1.40
2022-11-17T04:32:29.885Z,1.80
2022-11-17T04:35:31.819Z,1.30
2022-11-17T04:38:34.288Z,1.60
2022-11-17T04:41:36.306Z,1.60
2022-11-17T04:44:38.123Z,1.45
2022-11-17T04:47:40.158Z,1.50
2022-11-17T04:50:42.025Z,1.27
2022-11-17T04:53:44.993Z,1.40
2022-11-17T04:56:47.141Z,1.17
2022-11-17T04:59:49.049Z,1.10
2022-11-17T05:02:50.890Z,1.45
2022-11-17T05:05:52.764Z,1.58
2022-11-17T05:08:56.124Z,1.60
2022-11-17T05:11:58.179Z,1.60
2022-11-17T05:15:00.126Z,1.42
2022-11-17T05:18:02.240Z,1.85
2022-11-17T05:21:05.461Z,1.30
2022-11-17T05:24:08.201Z,1.13
2022-11-17T05:27:10.014Z,1.20
2022-11-17T05:30:14.803Z,0.95
2022-11-17T05:33:16.633Z,1.00
2022-11-17T05:36:18.726Z,1.25
2022-11-17T05:39:20.569Z,1.20
2022-11-17T05:42:22.463Z,1.17
2022-11-17T05:45:24.285Z,1.02
2022-11-17T05:48:26.196Z,1.13
2022-11-17T05:51:28.077Z,1.20
2022-11-17T05:54:29.917Z,1.20
2022-11-17T06:00:41.614Z,0.73
2022-11-17T06:03:47.691Z,1.27
2022-11-17T06:06:50.397Z,0.90
2022-11-17T06:09:52.731Z,1.00
2022-11-17T06:12:54.623Z,1.00
2022-11-17T06:15:59.481Z,1.17
2022-11-17T06:19:09.258Z,1.23
2022-11-17T06:22:13.159Z,1.58
2022-11-17T06:25:16.786Z,1.52
2022-11-17T06:28:21.749Z,1.92
2022-11-17T06:31:27.688Z,1.50
2022-11-17T06:34:29.793Z,0.90
2022-11-17T06:37:31.836Z,1.60
2022-11-17T06:40:35.888Z,1.15
2022-11-17T06:43:38.134Z,1.23
2022-11-17T06:46:43.679Z,0.82
2022-11-17T06:49:48.183Z,1.27
2022-11-17T06:52:50.228Z,1.30
2022-11-17T06:55:53.388Z,1.20
2022-11-17T06:58:55.508Z,1.52
2022-11-17T07:01:57.556Z,1.60
2022-11-17T07:04:59.497Z,1.20
2022-11-17T07:08:04.086Z,1.05
2022-11-17T07:11:11.210Z,1.42
2022-11-17T07:14:13.182Z,1.67
2022-11-17T07:17:17.639Z,1.15
2022-11-17T07:20:20.059Z,1.52
2022-11-17T07:23:22.185Z,1.70
2022-11-17T07:26:24.263Z,1.33
2022-11-17T07:29:26.177Z,0.82
2022-11-17T07:32:28.223Z,0.98
2022-11-17T07:35:30.267Z,1.35
2022-11-17T07:38:34.238Z,1.13
2022-11-17T07:41:36.495Z,0.70
2022-11-17T07:44:38.502Z,0.90
2022-11-17T07:47:40.479Z,1.60
2022-11-17T07:50:42.578Z,0.90
2022-11-17T07:53:44.593Z,1.83
2022-11-17T07:56:46.700Z,0.52
2022-11-17T07:59:48.906Z,1.08
2022-11-17T08:02:50.809Z,1.05
2022-11-17T08:05:52.831Z,1.00
2022-11-17T08:08:57.238Z,1.02
2022-11-17T08:11:59.767Z,1.00
2022-11-17T08:18:03.900Z,0.90
2022-11-17T08:21:08.621Z,1.27
2022-11-17T08:24:12.958Z,0.98
2022-11-17T08:27:15.418Z,0.98
2022-11-17T08:30:18.245Z,1.15
2022-11-17T08:33:20.214Z,1.10
2022-11-17T08:36:22.259Z,0.88
2022-11-17T08:39:24.274Z,1.00
2022-11-17T08:42:26.245Z,0.90
2022-11-17T08:45:28.274Z,1.13
2022-11-17T08:48:30.415Z,0.88
2022-11-17T08:51:32.817Z,1.00
2022-11-17T08:54:35.203Z,1.00
2022-11-17T08:57:37.193Z,1.38
2022-11-17T09:00:40.472Z,1.08
2022-11-17T09:03:44.426Z,0.80
2022-11-17T09:06:46.413Z,0.80
2022-11-17T09:09:48.424Z,0.90
2022-11-17T09:12:50.619Z,1.10
2022-11-17T09:15:53.360Z,1.63
2022-11-17T09:18:56.718Z,1.00
2022-11-17T09:21:58.688Z,1.00
2022-11-17T09:25:03.432Z,1.10
2022-11-17T09:28:06.812Z,1.58
2022-11-17T09:31:14.183Z,1.00
2022-11-17T09:34:17.216Z,0.90
2022-11-17T09:37:19.332Z,1.10
2022-11-17T09:40:21.464Z,1.20
2022-11-17T09:43:33.978Z,1.00
2022-11-17T09:46:57.358Z,0.93
2022-11-17T09:50:29.059Z,0.60
2022-11-17T09:53:52.549Z,1.05
2022-11-17T09:56:56.604Z,1.00
2022-11-17T10:00:15.028Z,1.20
2022-11-17T10:03:28.274Z,0.70
2022-11-17T10:06:31.720Z,0.88
2022-11-17T10:09:42.190Z,1.30
2022-11-17T10:12:51.624Z,1.73
2022-11-17T10:16:06.549Z,1.60
2022-11-17T10:19:14.950Z,1.10
2022-11-17T10:22:33.358Z,1.50
2022-11-17T10:25:38.385Z,1.20
2022-11-17T10:28:40.667Z,1.50
2022-11-17T10:31:45.720Z,1.65
2022-11-17T10:34:47.792Z,1.00
2022-11-17T10:37:59.673Z,1.60
2022-11-17T10:41:02.559Z,1.10
2022-11-17T10:44:23.534Z,1.75
2022-11-17T10:47:29.945Z,1.23
2022-11-17T10:50:34.124Z,1.10
2022-11-17T10:53:45.211Z,2.15
2022-11-17T10:56:52.144Z,1.02
2022-11-17T10:59:57.256Z,0.98
2022-11-17T11:03:21.382Z,0.80
2022-11-17T11:06:28.974Z,1.00
2022-11-17T11:09:31.854Z,1.05
2022-11-17T11:12:41.539Z,1.15
2022-11-17T11:15:44.893Z,0.98
2022-11-17T11:18:49.746Z,1.10
2022-11-17T11:21:57.617Z,1.30
2022-11-17T11:25:29.729Z,1.20
2022-11-17T11:28:56.275Z,1.65
2022-11-17T11:35:26.219Z,1.27
2022-11-17T11:38:58.106Z,1.17
2022-11-17T11:42:21.465Z,1.30
2022-11-17T11:45:37.104Z,1.40
2022-11-17T11:48:41.071Z,0.90
2022-11-17T12:03:35.354Z,0.70
2022-11-17T12:07:18.924Z,0.70
2022-11-17T12:10:36.716Z,0.90
2022-11-17T12:13:46.158Z,0.93
2022-11-17T12:16:59.899Z,0.98
2022-11-17T12:20:10.428Z,0.73
2022-11-17T12:23:34.712Z,1.20
2022-11-17T12:26:36.619Z,1.08
2022-11-17T12:29:46.643Z,2.05
2022-11-17T12:32:48.515Z,0.88
2022-11-17T12:36:16.590Z,1.05
2022-11-17T12:39:52.781Z,1.00
2022-11-17T12:43:27.477Z,2.00
2022-11-17T12:46:32.506Z,1.33
2022-11-17T12:49:47.855Z,2.47
2022-11-17T12:53:16.546Z,1.20
2022-11-17T12:56:39.426Z,1.08
2022-11-17T12:59:59.890Z,1.35
2022-11-17T13:09:37.627Z,1.35
2022-11-17T13:12:39.609Z,0.70
2022-11-17T13:15:43.193Z,1.02
2022-11-17T13:18:46.228Z,0.80
2022-11-17T13:21:48.124Z,0.98
2022-11-17T13:24:50.951Z,1.23
2022-11-17T13:27:58.442Z,0.90
2022-11-17T13:31:03.757Z,1.00
2022-11-17T13:34:13.881Z,1.30
2022-11-17T13:37:18.463Z,1.20
2022-11-17T13:40:21.913Z,0.70
2022-11-17T13:43:25.641Z,1.20
2022-11-17T13:46:27.521Z,1.10
2022-11-17T13:49:39.576Z,0.60
2022-11-17T13:52:46.750Z,0.85
2022-11-17T13:55:49.800Z,0.50
2022-11-17T13:58:52.801Z,1.70
2022-11-17T14:02:33.382Z,1.77
2022-11-17T14:05:35.331Z,1.40
2022-11-17T14:08:41.265Z,0.90
2022-11-17T14:11:43.274Z,0.77
2022-11-17T14:14:45.295Z,0.70
2022-11-17T14:18:20.119Z,0.80
2022-11-17T14:21:22.178Z,1.05
2022-11-17T14:24:24.954Z,1.23
2022-11-17T14:27:29.907Z,1.73
2022-11-17T14:30:31.845Z,2.00
2022-11-17T14:33:33.723Z,1.00
2022-11-17T14:36:37.393Z,1.00
2022-11-17T14:39:39.316Z,1.35
2022-11-17T14:42:41.663Z,1.02
2022-11-17T14:45:43.751Z,1.48
2022-11-17T14:48:45.968Z,1.73
2022-11-17T14:51:51.116Z,2.65
2022-11-17T14:54:53.208Z,2.22
2022-11-17T14:57:55.170Z,1.05
2022-11-17T15:00:57.052Z,0.80
2022-11-17T15:04:15.472Z,2.40
2022-11-17T15:07:24.149Z,1.10
2022-11-17T15:10:26.068Z,1.50
2022-11-17T15:13:28.303Z,1.30
2022-11-17T15:16:30.213Z,2.10
2022-11-17T15:19:32.096Z,0.88
2022-11-17T15:22:34.058Z,1.98
2022-11-17T15:25:38.329Z,1.98
2022-11-17T15:28:40.605Z,1.95
2022-11-17T15:31:43.086Z,2.60
2022-11-17T15:37:46.700Z,2.10
2022-11-17T15:40:53.886Z,1.88
2022-11-17T15:43:55.840Z,1.55
2022-11-17T15:50:05.134Z,1.88
2022-11-17T15:53:07.141Z,1.05
2022-11-17T15:56:10.667Z,1.10
2022-11-17T15:59:12.574Z,1.42
2022-11-17T16:02:14.489Z,1.33
2022-11-17T16:05:16.440Z,1.20
2022-11-17T16:08:18.344Z,1.40
2022-11-17T16:11:20.793Z,1.63
2022-11-17T16:14:23.154Z,1.98
2022-11-17T16:17:25.037Z,2.15
2022-11-17T16:20:27.180Z,2.17
2022-11-17T16:23:29.160Z,2.17
2022-11-17T16:26:31.721Z,1.63
2022-11-17T16:32:35.506Z,1.50
2022-11-17T16:35:38.413Z,1.80
2022-11-17T16:38:55.090Z,1.88
2022-11-17T16:42:02.243Z,2.28
2022-11-17T16:45:06.709Z,2.60
2022-11-17T16:48:11.328Z,2.67
2022-11-17T16:51:14.594Z,3.28
2022-11-17T16:54:17.292Z,4.53
2022-11-17T16:57:19.128Z,4.53
2022-11-17T17:00:21.066Z,3.70
2022-11-17T17:03:23.042Z,3.30
2022-11-17T17:06:25.544Z,4.40
2022-11-17T17:09:28.169Z,3.83
2022-11-17T17:12:30.378Z,3.95
2022-11-17T17:15:33.598Z,3.65
2022-11-17T17:18:35.918Z,3.45
2022-11-17T17:21:38.724Z,2.58
2022-11-17T17:24:40.570Z,2.58
2022-11-17T17:27:42.588Z,1.90
2022-11-17T17:30:44.424Z,2.42
2022-11-17T17:33:48.538Z,2.85
2022-11-17T17:36:50.436Z,2.97
2022-11-17T17:39:54.631Z,4.05
2022-11-17T17:42:56.428Z,4.68
2022-11-17T17:46:03.496Z,4.15
2022-11-17T17:49:06.066Z,4.93
2022-11-17T17:55:15.780Z,4.30
2022-11-17T17:58:17.614Z,3.30
2022-11-17T18:01:22.186Z,3.20
2022-11-17T18:04:26.368Z,3.90
2022-11-17T18:07:28.296Z,3.70
2022-11-17T18:10:30.208Z,4.75
2022-11-17T18:13:36.033Z,5.32
2022-11-17T18:16:40.757Z,3.55
2022-11-17T18:19:42.657Z,3.60
2022-11-17T18:22:44.681Z,3.85
2022-11-17T18:25:46.528Z,3.83
2022-11-17T18:29:06.320Z,4.38
2022-11-17T18:32:08.178Z,8.45
2022-11-17T18:35:10.042Z,4.32
2022-11-17T18:38:12.030Z,4.10
2022-11-17T18:41:15.732Z,4.13
2022-11-17T18:44:18.736Z,5.07
2022-11-17T18:47:20.739Z,7.72
2022-11-17T18:50:22.972Z,5.07
2022-11-17T18:53:25.177Z,3.40
2022-11-17T18:56:35.943Z,1.98
2022-11-17T18:59:37.986Z,5.75
2022-11-17T19:02:43.464Z,8.95
2022-11-17T19:06:02.931Z,3.83
2022-11-17T19:09:05.033Z,3.40
2022-11-17T19:12:10.625Z,5.57
2022-11-17T19:15:12.675Z,4.07
2022-11-17T19:18:18.109Z,4.15
2022-11-17T19:21:28.960Z,3.95
2022-11-17T19:24:31.085Z,3.58
2022-11-17T19:27:33.401Z,3.72
2022-11-17T19:30:35.651Z,4.28
2022-11-17T19:33:39.877Z,3.35
2022-11-17T19:36:42.067Z,3.25
2022-11-17T19:39:44.228Z,5.43
2022-11-17T19:42:48.163Z,5.22
2022-11-17T19:48:57.690Z,3.45
2022-11-17T19:51:59.637Z,2.67
2022-11-17T19:55:01.585Z,2.65
2022-11-17T19:58:03.713Z,2.10
2022-11-17T20:01:10.004Z,2.55
2022-11-17T20:04:12.714Z,1.80
2022-11-17T20:07:14.774Z,1.58
2022-11-17T20:10:17.592Z,1.48
2022-11-17T20:13:19.952Z,1.38
2022-11-17T20:16:27.181Z,1.13
2022-11-17T20:19:29.114Z,1.15
2022-11-17T20:22:32.699Z,1.35
2022-11-17T20:25:37.748Z,1.08
2022-11-17T20:28:40.545Z,1.52
2022-11-17T20:31:42.689Z,0.80
2022-11-17T20:34:44.728Z,1.20
2022-11-17T20:37:46.666Z,1.00
2022-11-17T20:40:48.634Z,0.95
2022-11-17T20:43:52.654Z,0.88
2022-11-17T20:46:56.967Z,1.00
2022-11-17T20:49:58.882Z,0.70
2022-11-17T20:53:00.936Z,0.77
2022-11-17T20:56:05.395Z,1.25
2022-11-17T20:59:07.571Z,1.30
2022-11-17T21:02:11.483Z,1.83
2022-11-17T21:05:13.977Z,1.50
2022-11-17T21:08:15.928Z,2.35
2022-11-17T21:11:22.934Z,1.30
2022-11-17T21:14:26.579Z,1.15
2022-11-17T21:17:28.640Z,1.50
2022-11-17T21:20:30.675Z,1.20
2022-11-17T21:23:32.812Z,1.23
2022-11-17T21:26:34.859Z,1.45
2022-11-17T21:29:39.310Z,1.00
2022-11-17T21:32:42.038Z,1.45
2022-11-17T21:35:44.596Z,0.80
2022-11-17T21:38:47.196Z,1.02
2022-11-17T21:44:51.260Z,1.17
2022-11-17T21:47:59.071Z,1.45
2022-11-17T21:51:01.513Z,1.00
2022-11-17T21:54:05.915Z,0.90
2022-11-17T21:57:07.974Z,1.00
2022-11-17T22:00:13.669Z,1.00
2022-11-17T22:03:15.672Z,1.30
2022-11-17T22:06:19.871Z,0.70
2022-11-17T22:09:21.800Z,0.90
2022-11-17T22:12:23.751Z,0.93
2022-11-17T22:15:25.738Z,1.13
2022-11-17T22:18:27.755Z,0.80
2022-11-17T22:21:30.360Z,1.00
2022-11-17T22:24:32.379Z,0.70
2022-11-17T22:27:34.621Z,0.70
2022-11-17T22:30:38.912Z,0.82
2022-11-17T22:33:41.007Z,0.57
2022-11-17T22:36:43.181Z,0.82
2022-11-17T22:39:47.705Z,0.60
2022-11-17T22:42:52.894Z,0.90
2022-11-17T22:45:54.877Z,0.60
2022-11-17T22:48:56.882Z,0.60
2022-11-17T22:51:59.068Z,0.90
2022-11-17T22:55:01.035Z,0.77
2022-11-17T22:58:03.583Z,0.80
2022-11-17T23:01:07.967Z,0.70
2022-11-17T23:04:11.752Z,1.00
2022-11-17T23:07:13.951Z,0.93
2022-11-17T23:10:16.307Z,0.80
2022-11-17T23:13:18.383Z,1.40
2022-11-17T23:16:20.502Z,1.00
2022-11-17T23:19:22.567Z,0.95
2022-11-17T23:22:24.676Z,0.98
2022-11-17T23:25:26.887Z,0.98
2022-11-17T23:28:28.846Z,1.02
2022-11-17T23:31:30.847Z,1.33
2022-11-17T23:34:32.850Z,1.13
2022-11-17T23:37:35.469Z,1.10
2022-11-17T23:40:37.733Z,1.15
2022-11-17T23:43:40.472Z,1.00
2022-11-17T23:46:42.402Z,1.02
2022-11-17T23:49:44.695Z,1.15
2022-11-17T23:52:46.722Z,0.90
2022-11-17T23:55:55.401Z,1.15
